sensor_id;sensor_type;location;lat;lon;timestamp;pressure;altitude;pressure_sealevel;temperature;humidity
14273;BME280;7220;49.450;11.052;2024-01-07T08:30:02;97871.41;;;7.34;88.94
14273;BME280;7220;49.450;11.052;2024-01-07T08:34:02;97879.97;;;7.58;82.25
14273;BME280;7220;49.450;11.052;2024-01-07T08:38:03;97893.03;;;7.23;78.77
14273;BME280;7220;49.450;11.052;2024-01-07T08:42:04;97899.63;;;6.94;78.83
14273;BME280;7220;49.450;11.052;2024-01-07T08:46:04;97909.31;;;6.52;79.18
14273;BME280;7220;49.450;11.052;2024-01-07T08:50:05;97930.09;;;6.17;79.28
14273;BME280;7220;49.450;11.052;2024-01-07T08:54:33;97937.44;;;5.63;78.16
14273;BME280;7220;49.450;11.052;2024-01-07T08:58:34;97952.47;;;5.12;79.68
14273;BME280;7220;49.450;11.052;2024-01-07T09:02:34;97948.94;;;4.61;80.64
14273;BME280;7220;49.450;11.052;2024-01-07T09:06:35;97954.56;;;4.50;81.77
14273;BME280;7220;49.450;11.052;2024-01-07T09:10:36;97955.59;;;4.17;83.17
14273;BME280;7220;49.450;11.052;2024-01-07T09:14:39;97970.53;;;3.88;83.20
14273;BME280;7220;49.450;11.052;2024-01-07T09:18:39;97987.47;;;3.48;84.77
14273;BME280;7220;49.450;11.052;2024-01-07T09:22:40;97990.66;;;3.28;85.55
14273;BME280;7220;49.450;11.052;2024-01-07T09:26:40;97990.50;;;3.01;85.99
14273;BME280;7220;49.450;11.052;2024-01-07T09:30:41;98002.28;;;2.86;86.54
14273;BME280;7220;49.450;11.052;2024-01-07T09:34:41;98002.72;;;2.67;88.30
14273;BME280;7220;49.450;11.052;2024-01-07T09:38:41;98003.09;;;2.52;89.26
14273;BME280;7220;49.450;11.052;2024-01-07T09:42:42;97999.81;;;2.44;90.01
14273;BME280;7220;49.450;11.052;2024-01-07T09:46:42;98006.25;;;2.30;90.29
14273;BME280;7220;49.450;11.052;2024-01-07T09:50:46;98002.09;;;2.20;90.94
14273;BME280;7220;49.450;11.052;2024-01-07T09:54:51;98025.03;;;2.12;91.79
14273;BME280;7220;49.450;11.052;2024-01-07T09:58:53;98018.34;;;1.97;91.96
14273;BME280;7220;49.450;11.052;2024-01-07T10:02:54;98013.38;;;1.84;92.92
14273;BME280;7220;49.450;11.052;2024-01-07T10:06:54;98022.38;;;1.72;93.17
14273;BME280;7220;49.450;11.052;2024-01-07T10:10:55;98034.81;;;1.63;93.70
14273;BME280;7220;49.450;11.052;2024-01-07T10:14:55;98040.13;;;1.56;94.07
14273;BME280;7220;49.450;11.052;2024-01-07T10:18:55;98050.66;;;1.55;94.26
14273;BME280;7220;49.450;11.052;2024-01-07T10:22:57;98031.69;;;1.44;93.50
14273;BME280;7220;49.450;11.052;2024-01-07T10:26:57;98034.34;;;1.40;94.14
14273;BME280;7220;49.450;11.052;2024-01-07T10:30:59;98041.41;;;1.37;94.17
14273;BME280;7220;49.450;11.052;2024-01-07T10:35:03;98055.25;;;1.42;94.92
14273;BME280;7220;49.450;11.052;2024-01-07T10:39:05;98043.31;;;1.29;94.94
14273;BME280;7220;49.450;11.052;2024-01-07T10:43:05;98032.16;;;1.17;94.99
14273;BME280;7220;49.450;11.052;2024-01-07T10:47:06;98042.66;;;1.16;95.74
14273;BME280;7220;49.450;11.052;2024-01-07T10:51:08;98044.56;;;1.07;95.94
14273;BME280;7220;49.450;11.052;2024-01-07T10:55:09;98044.69;;;1.01;96.02
14273;BME280;7220;49.450;11.052;2024-01-07T10:59:10;98050.69;;;1.08;96.40
14273;BME280;7220;49.450;11.052;2024-01-07T11:03:17;98054.19;;;1.05;96.01
14273;BME280;7220;49.450;11.052;2024-01-07T11:07:43;98048.91;;;1.08;95.95
14273;BME280;7220;49.450;11.052;2024-01-07T11:11:45;98052.38;;;1.09;96.34
14273;BME280;7220;49.450;11.052;2024-01-07T11:19:50;98051.59;;;1.04;95.92
14273;BME280;7220;49.450;11.052;2024-01-07T11:23:51;98041.22;;;0.99;95.93
14273;BME280;7220;49.450;11.052;2024-01-07T11:27:53;98052.56;;;0.98;96.38
14273;BME280;7220;49.450;11.052;2024-01-07T11:31:53;98059.53;;;0.99;96.45
14273;BME280;7220;49.450;11.052;2024-01-07T11:35:55;98051.66;;;1.01;96.01
14273;BME280;7220;49.450;11.052;2024-01-07T11:39:57;98051.44;;;1.13;95.45
14273;BME280;7220;49.450;11.052;2024-01-07T11:43:58;98063.66;;;1.13;95.31
14273;BME280;7220;49.450;11.052;2024-01-07T11:47:59;98057.53;;;1.14;95.06
14273;BME280;7220;49.450;11.052;2024-01-07T11:52:00;98061.19;;;1.05;94.44
14273;BME280;7220;49.450;11.052;2024-01-07T11:56:02;98065.53;;;1.04;94.23
14273;BME280;7220;49.450;11.052;2024-01-07T12:00:03;98076.03;;;1.03;93.96
14273;BME280;7220;49.450;11.052;2024-01-07T12:04:04;98061.25;;;1.00;93.87
14273;BME280;7220;49.450;11.052;2024-01-07T12:08:04;98078.63;;;1.04;93.93
14273;BME280;7220;49.450;11.052;2024-01-07T12:12:06;98073.47;;;1.01;93.94
14273;BME280;7220;49.450;11.052;2024-01-07T12:16:07;98078.56;;;1.09;94.12
14273;BME280;7220;49.450;11.052;2024-01-07T12:20:08;98067.41;;;0.98;93.57
14273;BME280;7220;49.450;11.052;2024-01-07T12:24:09;98066.50;;;1.00;93.54
14273;BME280;7220;49.450;11.052;2024-01-07T12:28:09;98071.78;;;0.97;93.46
14273;BME280;7220;49.450;11.052;2024-01-07T12:32:10;98080.47;;;0.99;93.75
14273;BME280;7220;49.450;11.052;2024-01-07T12:36:10;98067.47;;;0.96;93.12
14273;BME280;7220;49.450;11.052;2024-01-07T12:40:11;98083.97;;;0.98;92.68
14273;BME280;7220;49.450;11.052;2024-01-07T12:44:12;98074.38;;;0.99;93.17
14273;BME280;7220;49.450;11.052;2024-01-07T12:48:12;98078.75;;;0.98;93.01
14273;BME280;7220;49.450;11.052;2024-01-07T12:52:12;98089.97;;;1.05;93.07
14273;BME280;7220;49.450;11.052;2024-01-07T12:56:13;98092.66;;;1.00;92.52
14273;BME280;7220;49.450;11.052;2024-01-07T13:00:14;98092.78;;;0.94;92.50
14273;BME280;7220;49.450;11.052;2024-01-07T13:04:14;98092.78;;;0.94;92.03
14273;BME280;7220;49.450;11.052;2024-01-07T13:08:15;98112.78;;;0.97;91.90
14273;BME280;7220;49.450;11.052;2024-01-07T13:12:16;98103.28;;;0.91;91.39
14273;BME280;7220;49.450;11.052;2024-01-07T13:16:16;98102.44;;;0.90;91.15
14273;BME280;7220;49.450;11.052;2024-01-07T13:20:19;98106.91;;;0.84;90.94
14273;BME280;7220;49.450;11.052;2024-01-07T13:24:20;98126.97;;;0.82;90.84
14273;BME280;7220;49.450;11.052;2024-01-07T13:28:20;98120.00;;;0.81;90.84
14273;BME280;7220;49.450;11.052;2024-01-07T13:32:20;98134.78;;;0.85;90.53
14273;BME280;7220;49.450;11.052;2024-01-07T13:36:21;98125.28;;;0.79;90.10
14273;BME280;7220;49.450;11.052;2024-01-07T13:40:21;98134.84;;;0.80;90.04
14273;BME280;7220;49.450;11.052;2024-01-07T13:44:22;98139.25;;;0.80;89.92
14273;BME280;7220;49.450;11.052;2024-01-07T13:48:22;98148.91;;;0.73;88.88
14273;BME280;7220;49.450;11.052;2024-01-07T13:52:22;98138.41;;;0.74;89.73
14273;BME280;7220;49.450;11.052;2024-01-07T13:56:23;98143.59;;;0.79;89.39
14273;BME280;7220;49.450;11.052;2024-01-07T14:00:23;98146.31;;;0.73;88.64
14273;BME280;7220;49.450;11.052;2024-01-07T14:04:23;98148.03;;;0.74;88.73
14273;BME280;7220;49.450;11.052;2024-01-07T14:08:27;98156.72;;;0.76;88.31
14273;BME280;7220;49.450;11.052;2024-01-07T14:12:28;98161.13;;;0.72;88.25
14273;BME280;7220;49.450;11.052;2024-01-07T14:16:28;98161.22;;;0.66;87.67
14273;BME280;7220;49.450;11.052;2024-01-07T14:20:28;98166.50;;;0.63;87.32
14273;BME280;7220;49.450;11.052;2024-01-07T14:24:29;98175.34;;;0.53;86.83
14273;BME280;7220;49.450;11.052;2024-01-07T14:28:29;98180.50;;;0.59;87.56
14273;BME280;7220;49.450;11.052;2024-01-07T14:32:29;98184.78;;;0.65;87.81
14273;BME280;7220;49.450;11.052;2024-01-07T14:36:30;98192.66;;;0.63;87.54
14273;BME280;7220;49.450;11.052;2024-01-07T14:40:30;98212.75;;;0.58;86.49
14273;BME280;7220;49.450;11.052;2024-01-07T14:44:31;98207.63;;;0.52;85.99
14273;BME280;7220;49.450;11.052;2024-01-07T14:48:31;98209.31;;;0.54;86.19
14273;BME280;7220;49.450;11.052;2024-01-07T14:52:31;98224.16;;;0.54;85.82
14273;BME280;7220;49.450;11.052;2024-01-07T14:56:32;98213.69;;;0.54;85.91
14273;BME280;7220;49.450;11.052;2024-01-07T15:00:32;98225.03;;;0.53;85.63
14273;BME280;7220;49.450;11.052;2024-01-07T15:04:34;98234.69;;;0.47;85.42
14273;BME280;7220;49.450;11.052;2024-01-07T15:08:34;98242.56;;;0.44;85.59
14273;BME280;7220;49.450;11.052;2024-01-07T15:12:34;98244.25;;;0.49;85.62
14273;BME280;7220;49.450;11.052;2024-01-07T15:16:38;98234.72;;;0.44;86.06
14273;BME280;7220;49.450;11.052;2024-01-07T15:20:38;98252.09;;;0.49;86.00
14273;BME280;7220;49.450;11.052;2024-01-07T15:24:39;98255.72;;;0.38;85.86
14273;BME280;7220;49.450;11.052;2024-01-07T15:28:39;98264.53;;;0.31;85.80
14273;BME280;7220;49.450;11.052;2024-01-07T15:32:40;98276.72;;;0.32;85.59
14273;BME280;7220;49.450;11.052;2024-01-07T15:36:40;98278.41;;;0.33;85.58
14273;BME280;7220;49.450;11.052;2024-01-07T15:40:41;98292.41;;;0.29;84.73
14273;BME280;7220;49.450;11.052;2024-01-07T15:44:42;98281.19;;;0.18;84.26
14273;BME280;7220;49.450;11.052;2024-01-07T15:48:43;98294.31;;;0.13;83.89
14273;BME280;7220;49.450;11.052;2024-01-07T15:52:44;98301.28;;;0.15;84.28
14273;BME280;7220;49.450;11.052;2024-01-07T15:56:46;98292.66;;;0.04;84.51
14273;BME280;7220;49.450;11.052;2024-01-07T16:00:47;98309.16;;;0.11;84.72
14273;BME280;7220;49.450;11.052;2024-01-07T16:04:47;98317.06;;;0.06;84.44
14273;BME280;7220;49.450;11.052;2024-01-07T16:08:47;98319.72;;;0.02;84.19
14273;BME280;7220;49.450;11.052;2024-01-07T16:12:48;98322.38;;;-0.06;83.40
14273;BME280;7220;49.450;11.052;2024-01-07T16:16:48;98320.63;;;-0.04;83.59
14273;BME280;7220;49.450;11.052;2024-01-07T16:20:49;98330.28;;;-0.16;83.82
14273;BME280;7220;49.450;11.052;2024-01-07T16:24:49;98329.41;;;-0.14;83.54
14273;BME280;7220;49.450;11.052;2024-01-07T16:28:50;98353.78;;;-0.16;83.78
14273;BME280;7220;49.450;11.052;2024-01-07T16:32:52;98350.31;;;-0.14;83.58
14273;BME280;7220;49.450;11.052;2024-01-07T16:36:53;98359.94;;;-0.23;82.68
14273;BME280;7220;49.450;11.052;2024-01-07T16:40:53;98368.69;;;-0.27;82.24
14273;BME280;7220;49.450;11.052;2024-01-07T16:44:54;98381.81;;;-0.33;82.74
14273;BME280;7220;49.450;11.052;2024-01-07T16:48:54;98376.53;;;-0.27;83.01
14273;BME280;7220;49.450;11.052;2024-01-07T16:52:55;98373.06;;;-0.29;83.42
14273;BME280;7220;49.450;11.052;2024-01-07T16:56:55;98384.44;;;-0.38;82.99
14273;BME280;7220;49.450;11.052;2024-01-07T17:00:56;98390.53;;;-0.39;82.95
14273;BME280;7220;49.450;11.052;2024-01-07T17:04:57;98393.19;;;-0.45;82.93
14273;BME280;7220;49.450;11.052;2024-01-07T17:08:58;98399.28;;;-0.48;82.89
14273;BME280;7220;49.450;11.052;2024-01-07T17:12:59;98414.94;;;-0.44;83.19
14273;BME280;7220;49.450;11.052;2024-01-07T17:16:59;98407.97;;;-0.42;83.21
14273;BME280;7220;49.450;11.052;2024-01-07T17:21:00;98418.38;;;-0.39;83.37
14273;BME280;7220;49.450;11.052;2024-01-07T17:25:00;98421.91;;;-0.40;83.47
14273;BME280;7220;49.450;11.052;2024-01-07T17:29:00;98424.56;;;-0.50;82.10
14273;BME280;7220;49.450;11.052;2024-01-07T17:33:01;98443.75;;;-0.57;81.12
14273;BME280;7220;49.450;11.052;2024-01-07T17:37:02;98435.91;;;-0.60;81.70
14273;BME280;7220;49.450;11.052;2024-01-07T17:41:03;98430.78;;;-0.72;80.78
14273;BME280;7220;49.450;11.052;2024-01-07T17:45:04;98439.44;;;-0.70;81.10
14273;BME280;7220;49.450;11.052;2024-01-07T17:49:08;98455.09;;;-0.70;81.62
14273;BME280;7220;49.450;11.052;2024-01-07T17:53:08;98460.31;;;-0.70;81.51
14273;BME280;7220;49.450;11.052;2024-01-07T17:57:08;98457.75;;;-0.81;80.91
14273;BME280;7220;49.450;11.052;2024-01-07T18:01:09;98475.16;;;-0.82;80.50
14273;BME280;7220;49.450;11.052;2024-01-07T18:05:09;98463.00;;;-0.89;79.83
14273;BME280;7220;49.450;11.052;2024-01-07T18:09:10;98475.19;;;-0.89;78.74
14273;BME280;7220;49.450;11.052;2024-01-07T18:13:11;98492.56;;;-0.87;78.18
14273;BME280;7220;49.450;11.052;2024-01-07T18:17:14;98496.91;;;-0.90;78.45
14273;BME280;7220;49.450;11.052;2024-01-07T18:21:15;98491.72;;;-0.95;78.13
14273;BME280;7220;49.450;11.052;2024-01-07T18:25:15;98496.94;;;-0.95;78.28
14273;BME280;7220;49.450;11.052;2024-01-07T18:29:16;98502.16;;;-0.97;78.18
14273;BME280;7220;49.450;11.052;2024-01-07T18:33:16;98526.50;;;-1.02;77.18
14273;BME280;7220;49.450;11.052;2024-01-07T18:37:17;98512.63;;;-1.11;76.86
14273;BME280;7220;49.450;11.052;2024-01-07T18:41:20;98529.16;;;-1.15;76.71
14273;BME280;7220;49.450;11.052;2024-01-07T18:45:21;98524.78;;;-1.19;76.64
14273;BME280;7220;49.450;11.052;2024-01-07T18:49:23;98532.63;;;-1.28;76.33
14273;BME280;7220;49.450;11.052;2024-01-07T18:53:23;98537.00;;;-1.30;76.30
14273;BME280;7220;49.450;11.052;2024-01-07T18:57:24;98535.25;;;-1.34;76.30
14273;BME280;7220;49.450;11.052;2024-01-07T19:01:24;98540.44;;;-1.44;76.34
14273;BME280;7220;49.450;11.052;2024-01-07T19:05:25;98541.34;;;-1.43;75.97
14273;BME280;7220;49.450;11.052;2024-01-07T19:09:25;98550.91;;;-1.47;76.26
14273;BME280;7220;49.450;11.052;2024-01-07T19:13:26;98542.19;;;-1.47;76.74
14273;BME280;7220;49.450;11.052;2024-01-07T19:17:26;98552.63;;;-1.46;76.74
14273;BME280;7220;49.450;11.052;2024-01-07T19:21:26;98548.28;;;-1.45;77.52
14273;BME280;7220;49.450;11.052;2024-01-07T19:25:27;98562.19;;;-1.40;77.85
14273;BME280;7220;49.450;11.052;2024-01-07T19:29:28;98556.97;;;-1.37;77.63
14273;BME280;7220;49.450;11.052;2024-01-07T19:33:28;98562.19;;;-1.40;77.48
14273;BME280;7220;49.450;11.052;2024-01-07T19:37:30;98574.34;;;-1.45;77.30
14273;BME280;7220;49.450;11.052;2024-01-07T19:41:30;98565.66;;;-1.49;77.29
14273;BME280;7220;49.450;11.052;2024-01-07T19:45:35;98575.22;;;-1.51;77.41
14273;BME280;7220;49.450;11.052;2024-01-07T19:49:36;98582.16;;;-1.50;77.45
14273;BME280;7220;49.450;11.052;2024-01-07T19:53:36;98589.13;;;-1.55;77.74
14273;BME280;7220;49.450;11.052;2024-01-07T19:57:36;98592.56;;;-1.59;77.12
14273;BME280;7220;49.450;11.052;2024-01-07T20:01:37;98583.03;;;-1.65;77.46
14273;BME280;7220;49.450;11.052;2024-01-07T20:05:37;98589.09;;;-1.64;77.62
14273;BME280;7220;49.450;11.052;2024-01-07T20:09:39;98606.47;;;-1.60;77.76
14273;BME280;7220;49.450;11.052;2024-01-07T20:13:40;98599.53;;;-1.61;78.21
14273;BME280;7220;49.450;11.052;2024-01-07T20:17:40;98591.69;;;-1.69;78.12
14273;BME280;7220;49.450;11.052;2024-01-07T20:21:41;98601.25;;;-1.72;78.03
14273;BME280;7220;49.450;11.052;2024-01-07T20:25:42;98586.47;;;-1.80;78.24
14273;BME280;7220;49.450;11.052;2024-01-07T20:29:42;98597.75;;;-1.75;78.21
14273;BME280;7220;49.450;11.052;2024-01-07T20:33:45;98613.41;;;-1.73;78.15
14273;BME280;7220;49.450;11.052;2024-01-07T20:37:45;98617.75;;;-1.72;78.83
14273;BME280;7220;49.450;11.052;2024-01-07T20:41:46;98611.66;;;-1.71;78.32
14273;BME280;7220;49.450;11.052;2024-01-07T20:45:48;98603.84;;;-1.77;78.65
14273;BME280;7220;49.450;11.052;2024-01-07T20:49:48;98615.13;;;-1.73;78.73
14273;BME280;7220;49.450;11.052;2024-01-07T20:53:48;98623.84;;;-1.71;78.32
14273;BME280;7220;49.450;11.052;2024-01-07T20:57:49;98610.81;;;-1.71;78.79
14273;BME280;7220;49.450;11.052;2024-01-07T21:01:50;98612.53;;;-1.72;78.54
14273;BME280;7220;49.450;11.052;2024-01-07T21:05:54;98613.41;;;-1.71;78.12
14273;BME280;7220;49.450;11.052;2024-01-07T21:09:54;98616.03;;;-1.67;78.04
14273;BME280;7220;49.450;11.052;2024-01-07T21:13:54;98622.09;;;-1.68;77.84
14273;BME280;7220;49.450;11.052;2024-01-07T21:17:55;98602.13;;;-1.70;78.15
14273;BME280;7220;49.450;11.052;2024-01-07T21:22:01;98610.81;;;-1.68;78.00
14273;BME280;7220;49.450;11.052;2024-01-07T21:26:01;98611.69;;;-1.66;78.29
14273;BME280;7220;49.450;11.052;2024-01-07T21:30:02;98613.41;;;-1.65;77.97
14273;BME280;7220;49.450;11.052;2024-01-07T21:34:03;98609.09;;;-1.59;78.12
14273;BME280;7220;49.450;11.052;2024-01-07T21:38:03;98605.59;;;-1.59;78.32
14273;BME280;7220;49.450;11.052;2024-01-07T21:42:04;98609.97;;;-1.60;77.75
14273;BME280;7220;49.450;11.052;2024-01-07T21:46:04;98609.97;;;-1.61;77.75
14273;BME280;7220;49.450;11.052;2024-01-07T21:50:07;98614.31;;;-1.63;76.73
14273;BME280;7220;49.450;11.052;2024-01-07T21:54:07;98607.38;;;-1.61;77.03
14273;BME280;7220;49.450;11.052;2024-01-07T21:58:08;98618.63;;;-1.59;76.61
14273;BME280;7220;49.450;11.052;2024-01-07T22:02:08;98622.13;;;-1.57;76.62
14273;BME280;7220;49.450;11.052;2024-01-07T22:06:08;98626.47;;;-1.54;76.13
14273;BME280;7220;49.450;11.052;2024-01-07T22:10:09;98628.19;;;-1.52;76.11
14273;BME280;7220;49.450;11.052;2024-01-07T22:14:09;98627.31;;;-1.60;75.46
14273;BME280;7220;49.450;11.052;2024-01-07T22:18:10;98627.34;;;-1.59;75.11
14273;BME280;7220;49.450;11.052;2024-01-07T22:22:10;98619.53;;;-1.57;75.18
14273;BME280;7220;49.450;11.052;2024-01-07T22:26:12;98637.78;;;-1.54;74.37
14273;BME280;7220;49.450;11.052;2024-01-07T22:30:14;98633.38;;;-1.69;74.52
14273;BME280;7220;49.450;11.052;2024-01-07T22:34:14;98632.53;;;-1.66;74.43
14273;BME280;7220;49.450;11.052;2024-01-07T22:38:15;98625.56;;;-1.77;74.11
14273;BME280;7220;49.450;11.052;2024-01-07T22:42:15;98642.94;;;-1.66;74.25
14273;BME280;7220;49.450;11.052;2024-01-07T22:46:16;98639.47;;;-1.65;74.31
14273;BME280;7220;49.450;11.052;2024-01-07T22:50:16;98650.75;;;-1.66;74.00
14273;BME280;7220;49.450;11.052;2024-01-07T22:54:16;98644.69;;;-1.68;73.69
14273;BME280;7220;49.450;11.052;2024-01-07T22:58:17;98647.28;;;-1.70;74.64
14273;BME280;7220;49.450;11.052;2024-01-07T23:02:17;98636.00;;;-1.75;73.87
14273;BME280;7220;49.450;11.052;2024-01-07T23:06:18;98642.94;;;-1.72;74.07
14273;BME280;7220;49.450;11.052;2024-01-07T23:10:18;98655.97;;;-1.68;73.89
14273;BME280;7220;49.450;11.052;2024-01-07T23:14:18;98655.13;;;-1.68;74.49
14273;BME280;7220;49.450;11.052;2024-01-07T23:18:19;98656.00;;;-1.65;74.05
14273;BME280;7220;49.450;11.052;2024-01-07T23:22:19;98656.84;;;-1.64;74.83
14273;BME280;7220;49.450;11.052;2024-01-07T23:26:21;98644.72;;;-1.62;74.82
14273;BME280;7220;49.450;11.052;2024-01-07T23:30:21;98655.13;;;-1.65;74.65
14273;BME280;7220;49.450;11.052;2024-01-07T23:34:22;98663.81;;;-1.69;74.98
14273;BME280;7220;49.450;11.052;2024-01-07T23:38:22;98660.31;;;-1.64;75.29
14273;BME280;7220;49.450;11.052;2024-01-07T23:42:23;98649.91;;;-1.68;75.16
14273;BME280;7220;49.450;11.052;2024-01-07T23:46:23;98649.91;;;-1.71;75.10
14273;BME280;7220;49.450;11.052;2024-01-07T23:50:23;98662.09;;;-1.61;75.33
14273;BME280;7220;49.450;11.052;2024-01-07T23:54:24;98660.34;;;-1.62;75.51
14273;BME280;7220;49.450;11.052;2024-01-07T23:58:24;98653.41;;;-1.57;75.53
